Time;durP1;ratioP1;P1;durP2;ratioP2;P2;SDS_P1;SDS_P2;PMS_P1;PMS_P2;Temp;Humidity;BMP_temperature;BMP_pressure;BME280_temperature;BME280_humidity;BME280_pressure;Samples;Min_cycle;Max_cycle;Signal;HPM_P1;HPM_P2
2023/09/22 00:01:37;;;;;;;0.82;0.68;;;16.00;99.90;;;;;;4993466;28;20181;-87
2023/09/22 00:04:03;;;;;;;1.45;0.90;;;15.90;99.90;;;;;;4992282;28;20220;-86
2023/09/22 00:06:29;;;;;;;0.60;0.60;;;15.90;99.90;;;;;;4992790;28;20334;-86
2023/09/22 00:08:56;;;;;;;2.35;0.60;;;15.90;99.90;;;;;;4993302;28;20205;-86
2023/09/22 00:11:22;;;;;;;1.60;0.55;;;15.80;99.90;;;;;;4993130;28;20669;-85
2023/09/22 00:13:48;;;;;;;1.65;0.68;;;15.80;99.90;;;;;;4993606;28;20526;-85
2023/09/22 00:16:14;;;;;;;1.45;0.63;;;15.80;99.90;;;;;;4992632;28;20195;-85
2023/09/22 00:18:39;;;;;;;0.75;0.75;;;15.90;99.90;;;;;;4992969;28;20752;-85
2023/09/22 00:21:05;;;;;;;0.70;0.70;;;15.90;99.90;;;;;;4992834;28;20185;-85
2023/09/22 00:23:31;;;;;;;0.70;0.70;;;15.90;99.90;;;;;;4992518;28;20204;-85
2023/09/22 00:25:57;;;;;;;0.50;0.50;;;15.90;99.90;;;;;;4992655;28;20227;-85
2023/09/22 00:28:22;;;;;;;0.70;0.70;;;15.90;99.90;;;;;;4992639;28;20258;-85
2023/09/22 00:30:48;;;;;;;1.45;0.60;;;15.90;99.90;;;;;;4996211;28;20589;-85
2023/09/22 00:33:13;;;;;;;1.00;0.63;;;15.90;99.90;;;;;;4996123;28;20181;-84
2023/09/22 00:35:39;;;;;;;0.55;0.55;;;15.80;99.90;;;;;;4995605;28;20208;-85
2023/09/22 00:38:06;;;;;;;0.98;0.70;;;15.80;99.90;;;;;;4995772;28;20173;-85
2023/09/22 00:40:32;;;;;;;2.30;0.80;;;15.80;99.90;;;;;;4996141;28;20592;-85
2023/09/22 00:43:11;;;;;;;0.75;0.73;;;15.80;99.90;;;;;;4996137;28;20254;-85
2023/09/22 00:45:43;;;;;;;2.30;1.00;;;15.80;99.90;;;;;;4995842;28;20194;-85
2023/09/22 00:48:09;;;;;;;3.50;0.90;;;15.80;99.90;;;;;;4995546;28;20176;-85
2023/09/22 00:50:38;;;;;;;0.73;0.73;;;15.80;99.90;;;;;;4995974;28;20176;-85
2023/09/22 00:53:05;;;;;;;0.77;0.73;;;15.80;99.90;;;;;;4995504;28;20172;-85
2023/09/22 00:55:31;;;;;;;2.85;1.23;;;15.70;99.90;;;;;;4995720;28;20553;-85
2023/09/22 00:57:59;;;;;;;1.05;0.90;;;15.70;99.90;;;;;;4995741;28;20271;-85
2023/09/22 01:19:10;;;;;;;1.08;1.08;;;15.50;99.90;;;;;;4995170;26;20687;-73
2023/09/22 01:22:05;;;;;;;1.23;1.17;;;15.40;99.90;;;;;;4995769;28;20212;-73
2023/09/22 01:31:26;;;;;;;1.25;1.15;;;15.30;99.90;;;;;;4879775;29;20191;-73
2023/09/22 01:33:52;;;;;;;1.27;1.15;;;15.30;99.90;;;;;;4879826;29;20180;-73
2023/09/22 01:36:17;;;;;;;2.70;1.10;;;15.30;99.90;;;;;;4864046;29;20233;-73
2023/09/22 01:38:43;;;;;;;1.85;1.15;;;15.30;99.90;;;;;;4907691;28;20208;-73
2023/09/22 01:41:11;;;;;;;1.48;1.30;;;15.30;99.90;;;;;;4975099;28;20269;-73
2023/09/22 01:43:37;;;;;;;1.58;1.10;;;15.30;99.90;;;;;;4975369;28;20256;-73
2023/09/22 01:46:03;;;;;;;1.75;1.23;;;15.30;99.90;;;;;;4993381;23;20306;-72
2023/09/22 01:48:28;;;;;;;1.48;1.30;;;15.40;99.90;;;;;;4994480;28;20266;-72
2023/09/22 01:50:59;;;;;;;1.40;1.30;;;15.30;99.90;;;;;;4994434;28;20172;-72
2023/09/22 01:53:25;;;;;;;3.30;1.00;;;15.30;99.90;;;;;;4995257;28;20276;-72
2023/09/22 01:55:50;;;;;;;2.17;1.05;;;15.30;99.90;;;;;;4995488;28;20204;-72
2023/09/22 01:58:16;;;;;;;1.30;1.20;;;15.30;99.90;;;;;;4995060;28;20180;-72
2023/09/22 02:00:41;;;;;;;1.20;1.10;;;15.30;99.90;;;;;;4995498;28;20180;-72
2023/09/22 02:03:07;;;;;;;1.30;1.20;;;15.30;99.90;;;;;;4994413;28;20196;-72
2023/09/22 02:05:34;;;;;;;3.22;1.30;;;15.20;99.90;;;;;;4994295;28;20188;-72
2023/09/22 02:08:00;;;;;;;1.65;1.30;;;15.30;99.90;;;;;;4994657;28;20187;-72
2023/09/22 02:10:25;;;;;;;2.47;1.33;;;15.30;99.90;;;;;;4994259;28;20275;-72
2023/09/22 02:12:51;;;;;;;1.67;1.30;;;15.20;99.90;;;;;;4994664;28;20180;-74
2023/09/22 02:15:17;;;;;;;1.67;1.20;;;15.20;99.90;;;;;;4995138;28;20227;-74
2023/09/22 02:17:44;;;;;;;1.52;1.38;;;15.20;99.90;;;;;;4994940;28;20278;-73
2023/09/22 02:20:17;;;;;;;2.30;1.30;;;15.20;99.90;;;;;;4993749;28;20198;-73
